Create Custom Reports and Graphics: Custom Report

Latest Observations

MWA Stations

15 Minute Data | America/Los_Angeles
as of 9/3/26 2:08 AM PDT
Station Date Time Temp (°F) RH (%) Dew Pt (°F) Wind Dir (°) Wind Spd (mph) Wind Gust (mph) Solar Rad (W/m2) Pressure (mb) Daily Min Temp (°F) Daily Max Temp (°F) Daily Max Wind (mph) Daily Rain (In) Yest MinT (°F) Yest MaxT (°F) Yest MaxGst (mph) Yest Precip (In) MinBV Day (V)
MWA Office 9/3/26 0200 63.9   1.8 37   12 37.3   8.1 NW | 304 4.3   2.0 8.3   1.5 0   0 1,014.2   0.3 63.3   2.5 64.9   2.6 9.6   4.4 0.00 55.8 86.5 24.6 0.00 12.5   0.0
MWA OPS 9/3/26 0200 62.2   2.8 33   4 32.8   0.5 E | 92 0.9   1.8 3.3   5.0 0   0 1,013.5   0.6 61.5   3.1 67.5   0.1 12.3   3.9 0.00 60.6 84.6 26.5 0.00 12.9   0.0
LV-PS 9/3/26 0200 62.6   2.8 37   12 35.9   7.3 NNW | 345 0.3   2.0 2.2   3.3 0   0 1,012.8   0.2 61.7   0.5 62.8   3.9 4.6   0.9 0.00 54.5 92.9 29.6 0.00 12.8   0.0
JV-PS 9/3/26 0200 65.6   4.0 34   6 36.2   8.6 WSW | 251 2.1   1.8 4.6   0.7 0   0 1,012.1   1.8 65.0   5.4 66.2   0.5 8.8   2.2 0.00 55.9 92.5 27.6 0.00 12.9   0.0
BDVWA 9/3/26 0200 62.8   2.7 25   3 26.5   0.8 W | 262 4.7   0.4 6.8   0.2 0   0 1,011.9   0.9 62.1   2.7 63.4   4.6 7.9   2.2 0.00 60.0 87.7 28.7 0.00 12.9   0.0
Newberry Springs 9/3/26 0200 70.6   1.3 32   6 39.2   6.7 N | 355 3.6   6.7 7.5   10.1 0   0 1,011.4   1.4 70.4   1.4 71.6   1.1 12.3   6.6 0.00 63.2 95.2 26.5 0.00 13.0   0.0
Pinon Hills 9/3/26 0200 57.5   5.9 40   21 33.4   12.9 S | 186 3.5   0.1 9.0   7.5 0   0 1,013.9   1.0 57.0   4.5 60.2   5.8 9.0   7.5 0.00 56.7 80.7 28.3 0.00 12.9   0.0
Helendale 9/3/26 0200 65.0   5.8 43   2 41.7   4.1 S | 181 7.0   4.1 10.3   5.0 0   0 1,012.7   2.4 64.6   6.3 66.3   4.0 11.8   4.8 0.00 47.2 91.6 27.6 0.00 12.8   0.0
Lenwood 9/3/26 0200 67.5   3.4 35   5 39.0   6.8 SW | 223 7.6   5.9 11.6   6.4 0   0 1,012.0   2.2 67.5   4.4 68.6   2.6 16.2   10.7 0.00 51.8 92.2 24.3 0.00 12.9   0.0
Oak Hills 9/3/26 0200 55.6   2.8 60   27 42.0   12.7 SW | 217 8.7   2.2 18.0   3.5 0   0 1,014.8   0.3 55.5   3.0 56.6   2.9 18.0   2.4 0.00 54.3 76.5 25.2 0.00 13.0   0.0
Pipes Wash Canyon 9/3/26 0200 62.1   3.1 17   5 16.9   3.1 WSW | 258 1.5   0.2 3.5   0.9 0   0 1,011.3   2.6 61.1   2.6 63.8   2.4 9.6   2.6 0.00 57.2 84.1 20.0 0.00 12.8   0.0
Max     70.6 60 42.0 - 8.7 18.0 0 1,014.8 70.4 71.6 18.0 0.00 63.2 95.2 29.6 0.00 13.0
Avg     63.2 36 34.6 - 4.0 7.7 0 1,012.8 - - - - - - - - -
Min     55.6 17 16.9 - 0.3 2.2 0 1,011.3 55.5 56.6 4.6 0.00 47.2 76.5 20.0 0.00 12.5

Latest Observations

Map

15 Minute Data

Rainfall & ETo

MWA Stations

15 Minute Data | America/Los_Angeles
as of 9/3/26 2:08 AM PDT
Station Date Time Latest Rain (In) Daily Rain (In) Yest Precip (In) Month Precip (In) Season Precip (In) Daily ETo (in) Yest ETo (In) 7 Day ETo (in)
MWA Office 9/3/26 0200 0.00 0.00 0.00 0.00 0.00 0.000 0.29 1.89
MWA OPS 9/3/26 0200 0.00 0.00 0.00 0.00 0.00 0.000 0.31 2.05
LV-PS 9/3/26 0200 0.00 0.00 0.00 0.00 0.34 0.000 0.29 1.99
JV-PS 9/3/26 0200 0.00 0.00 0.00 0.00 0.06 0.000 0.29 1.98
BDVWA 9/3/26 0200 0.00 0.00 0.00 0.00 0.00 0.000 0.28 2.07
Newberry Springs 9/3/26 0200 0.00 0.00 0.00 0.00 1.97 0.000 0.33 2.33
Pinon Hills 9/3/26 0200 0.00 0.00 0.00 0.00 0.19 0.000 0.24 1.72
Helendale 9/3/26 0200 0.00 0.00 0.00 0.00 0.00 0.000 0.29 2.07
Lenwood 9/3/26 0200 0.00 0.00 0.00 0.00 0.09 0.000 0.30 2.11
Oak Hills 9/3/26 0200 0.00 0.00 0.00 0.00 0.00 0.000 0.25 1.73
Pipes Wash Canyon 9/3/26 0200 0.00 0.00 0.00 0.00 0.00 0.000 0.23 1.65
Max     0.00 0.00 0.00 0.00 1.97 0.000 0.33 2.33
Avg     0.00 - - - - - - -
Min     0.00 0.00 0.00 0.00 0.00 0.000 0.23 1.65